sensor_id;sensor_type;location;lat;lon;timestamp;pressure;altitude;pressure_sealevel;temperature;humidity
72721;BME280;60835;50.974;10.322;2023-11-19T00:01:33;97225.00;;;6.36;100.00
72721;BME280;60835;50.974;10.322;2023-11-19T00:04:01;97215.84;;;6.40;100.00
72721;BME280;60835;50.974;10.322;2023-11-19T00:06:27;97206.16;;;6.40;100.00
72721;BME280;60835;50.974;10.322;2023-11-19T00:08:54;97215.53;;;6.43;100.00
72721;BME280;60835;50.974;10.322;2023-11-19T00:11:21;97219.50;;;6.55;100.00
72721;BME280;60835;50.974;10.322;2023-11-19T00:13:48;97184.38;;;6.56;100.00
72721;BME280;60835;50.974;10.322;2023-11-19T00:16:15;97179.44;;;6.53;100.00
72721;BME280;60835;50.974;10.322;2023-11-19T00:18:43;97175.47;;;6.57;100.00
72721;BME280;60835;50.974;10.322;2023-11-19T00:21:09;97166.63;;;6.58;100.00
72721;BME280;60835;50.974;10.322;2023-11-19T00:23:37;97171.53;;;6.53;100.00
72721;BME280;60835;50.974;10.322;2023-11-19T00:26:04;97163.34;;;6.56;100.00
72721;BME280;60835;50.974;10.322;2023-11-19T00:28:33;97150.56;;;6.61;100.00
72721;BME280;60835;50.974;10.322;2023-11-19T00:31:00;97164.66;;;6.60;100.00
72721;BME280;60835;50.974;10.322;2023-11-19T00:33:27;97144.16;;;6.63;100.00
72721;BME280;60835;50.974;10.322;2023-11-19T00:35:54;97132.13;;;6.53;100.00
72721;BME280;60835;50.974;10.322;2023-11-19T00:38:20;97143.81;;;6.58;100.00
72721;BME280;60835;50.974;10.322;2023-11-19T00:40:47;97140.34;;;6.50;100.00
72721;BME280;60835;50.974;10.322;2023-11-19T00:43:14;97137.03;;;6.40;100.00
72721;BME280;60835;50.974;10.322;2023-11-19T00:45:40;97109.41;;;6.36;100.00
72721;BME280;60835;50.974;10.322;2023-11-19T00:48:07;97054.59;;;6.41;100.00
72721;BME280;60835;50.974;10.322;2023-11-19T00:50:34;97057.56;;;6.38;100.00
72721;BME280;60835;50.974;10.322;2023-11-19T00:53:03;97027.53;;;6.40;100.00
72721;BME280;60835;50.974;10.322;2023-11-19T00:55:30;97002.56;;;6.44;100.00
72721;BME280;60835;50.974;10.322;2023-11-19T00:57:57;96996.50;;;6.44;100.00
72721;BME280;60835;50.974;10.322;2023-11-19T01:00:24;96995.00;;;6.49;100.00
72721;BME280;60835;50.974;10.322;2023-11-19T01:02:53;96986.47;;;6.47;100.00
72721;BME280;60835;50.974;10.322;2023-11-19T01:05:20;96963.50;;;6.49;100.00
72721;BME280;60835;50.974;10.322;2023-11-19T01:07:49;96940.16;;;6.54;100.00
72721;BME280;60835;50.974;10.322;2023-11-19T01:10:16;96928.19;;;6.60;100.00
72721;BME280;60835;50.974;10.322;2023-11-19T01:12:46;96932.16;;;6.56;100.00
72721;BME280;60835;50.974;10.322;2023-11-19T01:15:12;96921.63;;;6.56;100.00
72721;BME280;60835;50.974;10.322;2023-11-19T01:17:39;96916.69;;;6.61;100.00
72721;BME280;60835;50.974;10.322;2023-11-19T01:20:18;96899.59;;;6.73;100.00
72721;BME280;60835;50.974;10.322;2023-11-19T01:22:47;96898.59;;;6.74;100.00
72721;BME280;60835;50.974;10.322;2023-11-19T01:25:15;96887.13;;;6.75;100.00
72721;BME280;60835;50.974;10.322;2023-11-19T01:27:44;96886.44;;;6.73;100.00
72721;BME280;60835;50.974;10.322;2023-11-19T01:30:11;96895.00;;;6.75;100.00
72721;BME280;60835;50.974;10.322;2023-11-19T01:32:41;96900.25;;;6.75;100.00
72721;BME280;60835;50.974;10.322;2023-11-19T01:35:08;96893.38;;;6.66;100.00
72721;BME280;60835;50.974;10.322;2023-11-19T01:37:34;96880.84;;;6.76;100.00
72721;BME280;60835;50.974;10.322;2023-11-19T01:40:03;96880.38;;;6.72;100.00
72721;BME280;60835;50.974;10.322;2023-11-19T01:42:36;96871.69;;;6.72;100.00
72721;BME280;60835;50.974;10.322;2023-11-19T01:45:04;96870.19;;;6.78;100.00
72721;BME280;60835;50.974;10.322;2023-11-19T01:47:34;96857.84;;;6.78;100.00
72721;BME280;60835;50.974;10.322;2023-11-19T01:50:02;96854.75;;;6.83;100.00
72721;BME280;60835;50.974;10.322;2023-11-19T01:52:34;96833.50;;;6.92;100.00
72721;BME280;60835;50.974;10.322;2023-11-19T01:55:04;96823.31;;;6.89;100.00
72721;BME280;60835;50.974;10.322;2023-11-19T01:57:31;96840.25;;;6.87;100.00
72721;BME280;60835;50.974;10.322;2023-11-19T01:59:58;96833.50;;;6.92;100.00
72721;BME280;60835;50.974;10.322;2023-11-19T02:02:25;96820.84;;;6.96;100.00
72721;BME280;60835;50.974;10.322;2023-11-19T02:04:53;96826.09;;;6.96;100.00
72721;BME280;60835;50.974;10.322;2023-11-19T02:07:19;96828.84;;;7.02;100.00
72721;BME280;60835;50.974;10.322;2023-11-19T02:09:47;96829.19;;;6.99;100.00
72721;BME280;60835;50.974;10.322;2023-11-19T02:12:14;96823.13;;;6.99;100.00
72721;BME280;60835;50.974;10.322;2023-11-19T02:14:40;96824.94;;;6.98;100.00
72721;BME280;60835;50.974;10.322;2023-11-19T02:17:07;96843.03;;;6.93;100.00
72721;BME280;60835;50.974;10.322;2023-11-19T02:19:51;96852.22;;;6.97;100.00
72721;BME280;60835;50.974;10.322;2023-11-19T02:22:17;96834.09;;;7.02;100.00
72721;BME280;60835;50.974;10.322;2023-11-19T02:24:45;96843.16;;;7.00;100.00
72721;BME280;60835;50.974;10.322;2023-11-19T02:27:21;96829.34;;;7.06;100.00
72721;BME280;60835;50.974;10.322;2023-11-19T02:29:53;96825.59;;;7.00;100.00
72721;BME280;60835;50.974;10.322;2023-11-19T02:32:20;96828.22;;;7.00;100.00
72721;BME280;60835;50.974;10.322;2023-11-19T02:34:46;96843.47;;;7.05;100.00
72721;BME280;60835;50.974;10.322;2023-11-19T02:37:13;96839.03;;;7.05;100.00
72721;BME280;60835;50.974;10.322;2023-11-19T02:39:41;96830.50;;;7.03;100.00
72721;BME280;60835;50.974;10.322;2023-11-19T02:42:08;96825.06;;;7.05;100.00
72721;BME280;60835;50.974;10.322;2023-11-19T02:44:35;96809.97;;;7.07;100.00
72721;BME280;60835;50.974;10.322;2023-11-19T02:47:01;96798.47;;;7.00;100.00
72721;BME280;60835;50.974;10.322;2023-11-19T02:49:29;96787.38;;;7.12;100.00
72721;BME280;60835;50.974;10.322;2023-11-19T02:51:56;96791.66;;;7.13;100.00
72721;BME280;60835;50.974;10.322;2023-11-19T02:54:22;96753.53;;;7.17;100.00
72721;BME280;60835;50.974;10.322;2023-11-19T02:56:53;96749.94;;;7.10;100.00
72721;BME280;60835;50.974;10.322;2023-11-19T02:59:26;96731.19;;;7.13;100.00
72721;BME280;60835;50.974;10.322;2023-11-19T03:02:05;96725.56;;;7.16;100.00
72721;BME280;60835;50.974;10.322;2023-11-19T03:04:38;96715.16;;;7.23;100.00
72721;BME280;60835;50.974;10.322;2023-11-19T03:07:06;96687.00;;;7.31;100.00
72721;BME280;60835;50.974;10.322;2023-11-19T03:09:36;96699.16;;;7.32;100.00
72721;BME280;60835;50.974;10.322;2023-11-19T03:12:03;96678.28;;;7.31;100.00
72721;BME280;60835;50.974;10.322;2023-11-19T03:14:33;96670.88;;;7.34;100.00
72721;BME280;60835;50.974;10.322;2023-11-19T03:17:01;96681.03;;;7.38;100.00
72721;BME280;60835;50.974;10.322;2023-11-19T03:19:28;96658.69;;;7.33;100.00
72721;BME280;60835;50.974;10.322;2023-11-19T03:21:55;96635.91;;;7.49;100.00
72721;BME280;60835;50.974;10.322;2023-11-19T03:24:22;96636.59;;;7.43;100.00
72721;BME280;60835;50.974;10.322;2023-11-19T03:26:50;96631.34;;;7.43;100.00
72721;BME280;60835;50.974;10.322;2023-11-19T03:29:17;96631.69;;;7.40;100.00
72721;BME280;60835;50.974;10.322;2023-11-19T03:31:44;96611.13;;;7.43;100.00
72721;BME280;60835;50.974;10.322;2023-11-19T03:34:13;96609.59;;;7.49;100.00
72721;BME280;60835;50.974;10.322;2023-11-19T03:36:40;96586.53;;;7.51;100.00
72721;BME280;60835;50.974;10.322;2023-11-19T03:39:07;96577.47;;;7.53;100.00
72721;BME280;60835;50.974;10.322;2023-11-19T03:41:34;96552.63;;;7.56;100.00
72721;BME280;60835;50.974;10.322;2023-11-19T03:44:04;96561.59;;;7.61;100.00
72721;BME280;60835;50.974;10.322;2023-11-19T03:46:31;96538.19;;;7.66;100.00
72721;BME280;60835;50.974;10.322;2023-11-19T03:48:57;96542.34;;;7.61;100.00
72721;BME280;60835;50.974;10.322;2023-11-19T03:51:24;96538.19;;;7.66;100.00
72721;BME280;60835;50.974;10.322;2023-11-19T03:53:51;96550.16;;;7.69;100.00
72721;BME280;60835;50.974;10.322;2023-11-19T03:56:17;96560.41;;;7.64;100.00
72721;BME280;60835;50.974;10.322;2023-11-19T03:58:44;96565.31;;;7.67;100.00
72721;BME280;60835;50.974;10.322;2023-11-19T04:01:12;96560.31;;;7.72;100.00
72721;BME280;60835;50.974;10.322;2023-11-19T04:03:40;96541.72;;;7.73;100.00
72721;BME280;60835;50.974;10.322;2023-11-19T04:06:16;96533.66;;;7.75;100.00
72721;BME280;60835;50.974;10.322;2023-11-19T04:08:43;96529.38;;;7.74;100.00
72721;BME280;60835;50.974;10.322;2023-11-19T04:11:10;96533.19;;;7.71;100.00
72721;BME280;60835;50.974;10.322;2023-11-19T04:13:37;96520.22;;;7.70;100.00
72721;BME280;60835;50.974;10.322;2023-11-19T04:16:04;96519.41;;;7.69;100.00
72721;BME280;60835;50.974;10.322;2023-11-19T04:18:31;96534.63;;;7.74;100.00
72721;BME280;60835;50.974;10.322;2023-11-19T04:20:58;96532.28;;;7.79;100.00
72721;BME280;60835;50.974;10.322;2023-11-19T04:23:25;96515.22;;;7.75;100.00
72721;BME280;60835;50.974;10.322;2023-11-19T04:25:52;96501.81;;;7.70;100.00
72721;BME280;60835;50.974;10.322;2023-11-19T04:28:20;96495.16;;;7.74;100.00
72721;BME280;60835;50.974;10.322;2023-11-19T04:30:47;96481.38;;;7.72;100.00
72721;BME280;60835;50.974;10.322;2023-11-19T04:33:14;96477.84;;;7.65;100.00
72721;BME280;60835;50.974;10.322;2023-11-19T04:35:41;96469.03;;;7.72;100.00
72721;BME280;60835;50.974;10.322;2023-11-19T04:38:08;96435.59;;;7.87;100.00
72721;BME280;60835;50.974;10.322;2023-11-19T04:40:35;96451.13;;;7.82;100.00
72721;BME280;60835;50.974;10.322;2023-11-19T04:43:01;96424.44;;;7.85;100.00
72721;BME280;60835;50.974;10.322;2023-11-19T04:45:28;96411.69;;;7.89;100.00
72721;BME280;60835;50.974;10.322;2023-11-19T04:47:54;96396.56;;;7.91;100.00
72721;BME280;60835;50.974;10.322;2023-11-19T04:50:22;96393.16;;;7.97;100.00
72721;BME280;60835;50.974;10.322;2023-11-19T04:52:49;96386.69;;;7.99;100.00
72721;BME280;60835;50.974;10.322;2023-11-19T04:55:16;96386.03;;;8.12;100.00
72721;BME280;60835;50.974;10.322;2023-11-19T04:57:44;96378.38;;;8.17;100.00
72721;BME280;60835;50.974;10.322;2023-11-19T05:00:11;96358.06;;;8.11;100.00
72721;BME280;60835;50.974;10.322;2023-11-19T05:02:41;96376.38;;;8.19;100.00
72721;BME280;60835;50.974;10.322;2023-11-19T05:05:09;96372.38;;;8.23;100.00
72721;BME280;60835;50.974;10.322;2023-11-19T05:07:36;96367.09;;;8.23;100.00
72721;BME280;60835;50.974;10.322;2023-11-19T05:10:05;96361.31;;;8.34;100.00
72721;BME280;60835;50.974;10.322;2023-11-19T05:12:32;96363.19;;;8.40;100.00
72721;BME280;60835;50.974;10.322;2023-11-19T05:14:58;96371.69;;;8.36;100.00
72721;BME280;60835;50.974;10.322;2023-11-19T05:17:25;96377.00;;;8.42;100.00
72721;BME280;60835;50.974;10.322;2023-11-19T05:19:52;96382.63;;;8.39;100.00
72721;BME280;60835;50.974;10.322;2023-11-19T05:22:19;96386.47;;;8.37;100.00
72721;BME280;60835;50.974;10.322;2023-11-19T05:24:47;96388.72;;;8.40;100.00
72721;BME280;60835;50.974;10.322;2023-11-19T05:27:15;96384.34;;;8.47;100.00
72721;BME280;60835;50.974;10.322;2023-11-19T05:29:41;96373.00;;;8.53;100.00
72721;BME280;60835;50.974;10.322;2023-11-19T05:32:09;96355.84;;;8.57;100.00
72721;BME280;60835;50.974;10.322;2023-11-19T05:34:39;96364.94;;;8.54;100.00
72721;BME280;60835;50.974;10.322;2023-11-19T05:37:09;96373.69;;;8.62;100.00
72721;BME280;60835;50.974;10.322;2023-11-19T05:39:37;96362.78;;;8.65;100.00
72721;BME280;60835;50.974;10.322;2023-11-19T05:42:04;96353.66;;;8.67;100.00
72721;BME280;60835;50.974;10.322;2023-11-19T05:44:31;96364.44;;;8.72;100.00
72721;BME280;60835;50.974;10.322;2023-11-19T05:46:57;96374.41;;;8.77;100.00
72721;BME280;60835;50.974;10.322;2023-11-19T05:49:24;96361.22;;;8.77;100.00
72721;BME280;60835;50.974;10.322;2023-11-19T05:51:51;96346.88;;;8.86;100.00
72721;BME280;60835;50.974;10.322;2023-11-19T05:54:17;96355.25;;;8.89;100.00
72721;BME280;60835;50.974;10.322;2023-11-19T05:56:48;96350.81;;;9.03;100.00
72721;BME280;60835;50.974;10.322;2023-11-19T05:59:15;96364.66;;;9.05;100.00
72721;BME280;60835;50.974;10.322;2023-11-19T06:01:44;96357.56;;;9.12;100.00
72721;BME280;60835;50.974;10.322;2023-11-19T06:04:11;96364.28;;;9.08;100.00
72721;BME280;60835;50.974;10.322;2023-11-19T06:06:37;96362.41;;;9.08;100.00
72721;BME280;60835;50.974;10.322;2023-11-19T06:09:04;96366.41;;;8.98;100.00
72721;BME280;60835;50.974;10.322;2023-11-19T06:11:34;96365.44;;;9.05;100.00
72721;BME280;60835;50.974;10.322;2023-11-19T06:14:02;96368.91;;;9.06;100.00
72721;BME280;60835;50.974;10.322;2023-11-19T06:16:32;96372.56;;;9.05;100.00
72721;BME280;60835;50.974;10.322;2023-11-19T06:18:58;96376.25;;;9.10;100.00
72721;BME280;60835;50.974;10.322;2023-11-19T06:21:25;96373.47;;;9.18;100.00
72721;BME280;60835;50.974;10.322;2023-11-19T06:23:52;96377.91;;;9.18;100.00
72721;BME280;60835;50.974;10.322;2023-11-19T06:26:19;96381.94;;;9.14;100.00
72721;BME280;60835;50.974;10.322;2023-11-19T06:28:50;96379.34;;;9.27;100.00
72721;BME280;60835;50.974;10.322;2023-11-19T06:31:17;96363.38;;;9.35;100.00
72721;BME280;60835;50.974;10.322;2023-11-19T06:33:43;96356.06;;;9.37;100.00
72721;BME280;60835;50.974;10.322;2023-11-19T06:36:10;96365.22;;;9.41;100.00
72721;BME280;60835;50.974;10.322;2023-11-19T06:38:37;96359.34;;;9.39;100.00
72721;BME280;60835;50.974;10.322;2023-11-19T06:41:07;96353.41;;;9.37;100.00
72721;BME280;60835;50.974;10.322;2023-11-19T06:43:36;96341.88;;;9.38;100.00
72721;BME280;60835;50.974;10.322;2023-11-19T06:46:14;96345.16;;;9.47;100.00
72721;BME280;60835;50.974;10.322;2023-11-19T06:48:41;96350.84;;;9.50;100.00
72721;BME280;60835;50.974;10.322;2023-11-19T06:51:11;96352.06;;;9.54;100.00
72721;BME280;60835;50.974;10.322;2023-11-19T06:53:37;96343.59;;;9.65;100.00
72721;BME280;60835;50.974;10.322;2023-11-19T06:56:21;96368.75;;;9.61;100.00
72721;BME280;60835;50.974;10.322;2023-11-19T06:58:49;96356.00;;;9.71;100.00
72721;BME280;60835;50.974;10.322;2023-11-19T07:01:16;96357.59;;;9.72;100.00
72721;BME280;60835;50.974;10.322;2023-11-19T07:03:48;96333.88;;;9.79;100.00
72721;BME280;60835;50.974;10.322;2023-11-19T07:06:15;96333.06;;;9.78;100.00
72721;BME280;60835;50.974;10.322;2023-11-19T07:08:42;96336.50;;;9.79;100.00
72721;BME280;60835;50.974;10.322;2023-11-19T07:11:12;96321.69;;;9.85;100.00
72721;BME280;60835;50.974;10.322;2023-11-19T07:13:40;96320.66;;;9.86;100.00
72721;BME280;60835;50.974;10.322;2023-11-19T07:16:07;96317.44;;;9.97;100.00
72721;BME280;60835;50.974;10.322;2023-11-19T07:18:36;96314.03;;;10.16;100.00
72721;BME280;60835;50.974;10.322;2023-11-19T07:21:04;96352.03;;;10.15;100.00
72721;BME280;60835;50.974;10.322;2023-11-19T07:23:31;96356.72;;;10.13;100.00
72721;BME280;60835;50.974;10.322;2023-11-19T07:25:58;96368.91;;;10.14;100.00
72721;BME280;60835;50.974;10.322;2023-11-19T07:28:24;96382.34;;;10.19;100.00
72721;BME280;60835;50.974;10.322;2023-11-19T07:30:51;96391.28;;;10.31;100.00
72721;BME280;60835;50.974;10.322;2023-11-19T07:33:17;96399.59;;;10.28;100.00
72721;BME280;60835;50.974;10.322;2023-11-19T07:35:44;96399.41;;;10.36;100.00
72721;BME280;60835;50.974;10.322;2023-11-19T07:38:11;96425.84;;;10.36;100.00
72721;BME280;60835;50.974;10.322;2023-11-19T07:40:37;96423.00;;;10.44;100.00
72721;BME280;60835;50.974;10.322;2023-11-19T07:43:04;96449.03;;;10.34;100.00
72721;BME280;60835;50.974;10.322;2023-11-19T07:45:32;96456.72;;;10.16;100.00
72721;BME280;60835;50.974;10.322;2023-11-19T07:47:59;96469.31;;;10.20;100.00
72721;BME280;60835;50.974;10.322;2023-11-19T07:50:28;96465.28;;;10.24;100.00
72721;BME280;60835;50.974;10.322;2023-11-19T07:52:57;96448.56;;;10.17;100.00
72721;BME280;60835;50.974;10.322;2023-11-19T07:55:23;96435.56;;;10.16;100.00
72721;BME280;60835;50.974;10.322;2023-11-19T07:57:50;96432.31;;;10.14;100.00
72721;BME280;60835;50.974;10.322;2023-11-19T08:00:17;96406.28;;;10.11;100.00
72721;BME280;60835;50.974;10.322;2023-11-19T08:02:45;96386.75;;;10.12;100.00
72721;BME280;60835;50.974;10.322;2023-11-19T08:05:12;96351.63;;;10.18;100.00
72721;BME280;60835;50.974;10.322;2023-11-19T08:07:39;96319.50;;;10.47;100.00
72721;BME280;60835;50.974;10.322;2023-11-19T08:10:05;96291.63;;;10.77;100.00
72721;BME280;60835;50.974;10.322;2023-11-19T08:12:36;96260.19;;;11.45;100.00
72721;BME280;60835;50.974;10.322;2023-11-19T08:15:04;96291.28;;;11.56;100.00
72721;BME280;60835;50.974;10.322;2023-11-19T08:17:31;96324.19;;;11.80;100.00
72721;BME280;60835;50.974;10.322;2023-11-19T08:19:58;96389.34;;;11.87;100.00
72721;BME280;60835;50.974;10.322;2023-11-19T08:22:26;96455.78;;;11.92;100.00
72721;BME280;60835;50.974;10.322;2023-11-19T08:24:53;96482.47;;;12.35;100.00
72721;BME280;60835;50.974;10.322;2023-11-19T08:27:20;96571.41;;;12.38;100.00
72721;BME280;60835;50.974;10.322;2023-11-19T08:29:54;96624.38;;;12.51;100.00
72721;BME280;60835;50.974;10.322;2023-11-19T08:32:25;96696.31;;;12.74;100.00
72721;BME280;60835;50.974;10.322;2023-11-19T08:34:52;96765.97;;;12.50;100.00
72721;BME280;60835;50.974;10.322;2023-11-19T08:37:18;96795.69;;;12.84;100.00
72721;BME280;60835;50.974;10.322;2023-11-19T08:39:48;96853.91;;;12.73;100.00
72721;BME280;60835;50.974;10.322;2023-11-19T08:42:14;96884.91;;;12.79;100.00
72721;BME280;60835;50.974;10.322;2023-11-19T08:44:42;96898.34;;;13.23;100.00
72721;BME280;60835;50.974;10.322;2023-11-19T08:47:11;96964.66;;;12.45;100.00
72721;BME280;60835;50.974;10.322;2023-11-19T08:49:39;96951.66;;;13.28;100.00
72721;BME280;60835;50.974;10.322;2023-11-19T08:52:06;97004.34;;;12.86;100.00
72721;BME280;60835;50.974;10.322;2023-11-19T08:54:36;97018.06;;;13.15;100.00
72721;BME280;60835;50.974;10.322;2023-11-19T08:57:03;97048.69;;;13.11;100.00
72721;BME280;60835;50.974;10.322;2023-11-19T08:59:30;97053.34;;;13.75;100.00
72721;BME280;60835;50.974;10.322;2023-11-19T09:01:57;97112.16;;;13.06;100.00
72721;BME280;60835;50.974;10.322;2023-11-19T09:04:23;97131.00;;;13.18;100.00
72721;BME280;60835;50.974;10.322;2023-11-19T09:06:50;97134.19;;;12.94;100.00
72721;BME280;60835;50.974;10.322;2023-11-19T09:09:17;97162.69;;;12.72;100.00
72721;BME280;60835;50.974;10.322;2023-11-19T09:11:44;97154.06;;;12.57;100.00
72721;BME280;60835;50.974;10.322;2023-11-19T09:14:10;97160.88;;;12.32;100.00
72721;BME280;60835;50.974;10.322;2023-11-19T09:16:37;97169.50;;;12.40;100.00
72721;BME280;60835;50.974;10.322;2023-11-19T09:19:04;97179.72;;;12.09;100.00
72721;BME280;60835;50.974;10.322;2023-11-19T09:21:32;97158.38;;;12.23;100.00
72721;BME280;60835;50.974;10.322;2023-11-19T09:24:01;97169.63;;;12.26;100.00
72721;BME280;60835;50.974;10.322;2023-11-19T09:26:27;97165.78;;;12.35;100.00
72721;BME280;60835;50.974;10.322;2023-11-19T09:28:54;97168.66;;;12.33;100.00
72721;BME280;60835;50.974;10.322;2023-11-19T09:31:21;97170.25;;;12.28;100.00
72721;BME280;60835;50.974;10.322;2023-11-19T09:33:47;97205.59;;;12.07;100.00
72721;BME280;60835;50.974;10.322;2023-11-19T09:36:14;97196.97;;;11.98;100.00
72721;BME280;60835;50.974;10.322;2023-11-19T09:38:43;97191.97;;;11.82;100.00
72721;BME280;60835;50.974;10.322;2023-11-19T09:41:11;97193.91;;;11.74;100.00
72721;BME280;60835;50.974;10.322;2023-11-19T09:43:42;97210.75;;;11.87;100.00
72721;BME280;60835;50.974;10.322;2023-11-19T09:46:10;97198.22;;;12.37;100.00
72721;BME280;60835;50.974;10.322;2023-11-19T09:48:40;97235.50;;;12.29;100.00
72721;BME280;60835;50.974;10.322;2023-11-19T09:51:11;97245.81;;;12.45;100.00
72721;BME280;60835;50.974;10.322;2023-11-19T09:53:39;97258.53;;;12.21;100.00
72721;BME280;60835;50.974;10.322;2023-11-19T09:56:07;97257.97;;;12.05;100.00
72721;BME280;60835;50.974;10.322;2023-11-19T09:58:34;97271.44;;;11.82;100.00
72721;BME280;60835;50.974;10.322;2023-11-19T10:01:02;97275.63;;;11.70;100.00
72721;BME280;60835;50.974;10.322;2023-11-19T10:03:41;97255.31;;;11.62;100.00
72721;BME280;60835;50.974;10.322;2023-11-19T10:06:10;97216.78;;;12.37;100.00
72721;BME280;60835;50.974;10.322;2023-11-19T10:08:41;97189.84;;;13.21;100.00
72721;BME280;60835;50.974;10.322;2023-11-19T10:11:08;97223.66;;;13.73;100.00
72721;BME280;60835;50.974;10.322;2023-11-19T10:13:37;97279.91;;;14.10;100.00
72721;BME280;60835;50.974;10.322;2023-11-19T10:16:07;97318.00;;;14.43;100.00
72721;BME280;60835;50.974;10.322;2023-11-19T10:18:35;97362.38;;;14.88;100.00
72721;BME280;60835;50.974;10.322;2023-11-19T10:21:06;97394.31;;;15.21;100.00
72721;BME280;60835;50.974;10.322;2023-11-19T10:23:53;97408.50;;;14.56;100.00
72721;BME280;60835;50.974;10.322;2023-11-19T10:26:20;97402.75;;;14.52;100.00
72721;BME280;60835;50.974;10.322;2023-11-19T10:28:47;97430.53;;;14.30;100.00
72721;BME280;60835;50.974;10.322;2023-11-19T10:31:15;97409.09;;;14.38;100.00
72721;BME280;60835;50.974;10.322;2023-11-19T10:33:42;97432.84;;;13.86;100.00
72721;BME280;60835;50.974;10.322;2023-11-19T10:36:12;97405.63;;;14.57;100.00
72721;BME280;60835;50.974;10.322;2023-11-19T10:38:40;97437.44;;;14.12;100.00
72721;BME280;60835;50.974;10.322;2023-11-19T10:41:07;97443.34;;;13.53;100.00
72721;BME280;60835;50.974;10.322;2023-11-19T10:43:45;97442.28;;;12.92;100.00
72721;BME280;60835;50.974;10.322;2023-11-19T10:46:13;97444.47;;;12.82;100.00
72721;BME280;60835;50.974;10.322;2023-11-19T10:48:40;97440.81;;;12.83;100.00
72721;BME280;60835;50.974;10.322;2023-11-19T10:51:08;97431.09;;;12.69;100.00
72721;BME280;60835;50.974;10.322;2023-11-19T10:53:38;97441.81;;;12.54;100.00
72721;BME280;60835;50.974;10.322;2023-11-19T10:56:08;97434.00;;;12.53;100.00
72721;BME280;60835;50.974;10.322;2023-11-19T10:58:37;97436.41;;;12.48;100.00
72721;BME280;60835;50.974;10.322;2023-11-19T11:01:20;97432.22;;;12.81;100.00
72721;BME280;60835;50.974;10.322;2023-11-19T11:03:51;97434.19;;;12.72;100.00
72721;BME280;60835;50.974;10.322;2023-11-19T11:06:19;97435.53;;;12.62;100.00
72721;BME280;60835;50.974;10.322;2023-11-19T11:08:46;97447.28;;;12.53;100.00
72721;BME280;60835;50.974;10.322;2023-11-19T11:11:15;97438.31;;;12.54;100.00
72721;BME280;60835;50.974;10.322;2023-11-19T11:13:44;97443.75;;;12.46;100.00
72721;BME280;60835;50.974;10.322;2023-11-19T11:16:12;97430.13;;;12.76;100.00
72721;BME280;60835;50.974;10.322;2023-11-19T11:18:40;97455.66;;;13.05;100.00
72721;BME280;60835;50.974;10.322;2023-11-19T11:21:10;97454.69;;;13.75;100.00
72721;BME280;60835;50.974;10.322;2023-11-19T11:23:56;97484.03;;;13.94;100.00
72721;BME280;60835;50.974;10.322;2023-11-19T11:29:04;97493.69;;;15.15;100.00
72721;BME280;60835;50.974;10.322;2023-11-19T11:34:19;97507.63;;;15.17;100.00
72721;BME280;60835;50.974;10.322;2023-11-19T11:39:36;97478.00;;;15.84;100.00
72721;BME280;60835;50.974;10.322;2023-11-19T11:45:14;97500.19;;;15.84;100.00
72721;BME280;60835;50.974;10.322;2023-11-19T11:57:58;97517.47;;;15.56;100.00
72721;BME280;60835;50.974;10.322;2023-11-19T12:00:39;97539.19;;;15.46;100.00
72721;BME280;60835;50.974;10.322;2023-11-19T12:03:07;97511.47;;;16.31;100.00
72721;BME280;60835;50.974;10.322;2023-11-19T12:05:42;97541.66;;;15.80;100.00
72721;BME280;60835;50.974;10.322;2023-11-19T12:08:14;97538.38;;;15.65;100.00
72721;BME280;60835;50.974;10.322;2023-11-19T12:10:52;97557.25;;;15.57;100.00
72721;BME280;60835;50.974;10.322;2023-11-19T12:13:20;97542.88;;;16.80;100.00
72721;BME280;60835;50.974;10.322;2023-11-19T12:18:28;97546.50;;;15.97;100.00
72721;BME280;60835;50.974;10.322;2023-11-19T12:20:56;97545.25;;;16.06;100.00
72721;BME280;60835;50.974;10.322;2023-11-19T12:23:29;97554.75;;;15.36;100.00
72721;BME280;60835;50.974;10.322;2023-11-19T12:25:59;97541.38;;;15.89;100.00
72721;BME280;60835;50.974;10.322;2023-11-19T12:28:26;97552.91;;;15.82;100.00
72721;BME280;60835;50.974;10.322;2023-11-19T12:31:07;97542.69;;;15.14;100.00
72721;BME280;60835;50.974;10.322;2023-11-19T12:33:36;97554.97;;;15.15;100.00
72721;BME280;60835;50.974;10.322;2023-11-19T12:36:04;97570.72;;;14.84;100.00
72721;BME280;60835;50.974;10.322;2023-11-19T12:38:32;97580.91;;;14.60;100.00
72721;BME280;60835;50.974;10.322;2023-11-19T12:41:09;97591.34;;;14.21;100.00
72721;BME280;60835;50.974;10.322;2023-11-19T12:43:39;97576.25;;;14.89;100.00
72721;BME280;60835;50.974;10.322;2023-11-19T12:46:22;97585.59;;;14.58;100.00
72721;BME280;60835;50.974;10.322;2023-11-19T12:48:50;97546.19;;;15.47;100.00
72721;BME280;60835;50.974;10.322;2023-11-19T12:51:18;97552.88;;;15.96;100.00
72721;BME280;60835;50.974;10.322;2023-11-19T12:53:52;97553.94;;;15.68;100.00
72721;BME280;60835;50.974;10.322;2023-11-19T12:56:24;97546.94;;;15.94;100.00
72721;BME280;60835;50.974;10.322;2023-11-19T12:58:51;97528.03;;;15.95;100.00
72721;BME280;60835;50.974;10.322;2023-11-19T13:01:19;97544.94;;;15.69;100.00
72721;BME280;60835;50.974;10.322;2023-11-19T13:03:47;97534.00;;;16.41;100.00
72721;BME280;60835;50.974;10.322;2023-11-19T13:06:15;97538.38;;;15.39;100.00
72721;BME280;60835;50.974;10.322;2023-11-19T13:08:48;97526.34;;;16.07;100.00
72721;BME280;60835;50.974;10.322;2023-11-19T13:11:34;97519.09;;;15.63;100.00
72721;BME280;60835;50.974;10.322;2023-11-19T13:14:03;97537.56;;;15.19;100.00
72721;BME280;60835;50.974;10.322;2023-11-19T13:16:31;97527.25;;;15.88;100.00